Flight Track Log - Related Links

Times and Time Zones

All times are in EDT time to prevent confusion due to time zone crossing. See the N325P flight status page for this flight to view local times or setup timezone preferences in your user account.

Time Position Orientation Groundspeed Altitude Reporting Facility
EDT Latitude Longitude Course Direction KTS MPH feet Rate Location/Type
Wed 03:29:42 PM 33.6167 -111.9333 292° West 128 147 2,200  Level Phoenix TRACON
Wed 03:30:48 PM 33.6333 -111.9833 292° West 137 158 2,900 516 Climbing Phoenix TRACON
Wed 03:31:15 PM 33.6306 -111.9883 236° Southwest 136 157 3,000 607 Climbing Albuquerque Center
Wed 03:32:17 PM 33.6403 -112.0322 285° West 135 155 3,800 726 Climbing Albuquerque Center
Wed 03:33:19 PM 33.6642 -112.0633 313° West 149 171 4,500 615 Climbing Albuquerque Center
Wed 03:34:14 PM 33.7064 -112.0717 351° North 147 169 5,000 248 Climbing Albuquerque Center
Wed 03:35:20 PM 33.7572 -112.0817 351° North 160 184 5,000  Level Albuquerque Center
Wed 03:36:24 PM 33.7803 -112.1211 305° West 170 196 5,000  Level Albuquerque Center
Wed 03:37:26 PM 33.7883 -112.1739 280° West 161 185 5,000 290 Level Albuquerque Center
Wed 03:38:28 PM 33.7958 -112.2217 281° West 146 168 5,600 508 Climbing Albuquerque Center
Wed 03:39:24 PM 33.8036 -112.2689 281° West 133 153 6,000 244 Climbing Albuquerque Center
Wed 03:40:31 PM 33.8108 -112.3117 281° West 145 167 6,100  Climbing Albuquerque Center
Wed 03:41:25 PM 33.8114 -112.3719 271° West 161 185 6,000 275 Descending Albuquerque Center
Wed 03:42:20 PM 33.7975 -112.4136 248° West 152 175 6,600 771 Climbing Albuquerque Center
Wed 03:42:35 PM 33.7942 -112.4208 241° Southwest 151 174 6,900 779 Climbing Albuquerque Center
Wed 03:43:37 PM 33.7828 -112.4644 253° West 137 158 7,600 736 Climbing Albuquerque Center
Wed 03:44:21 PM 33.7708 -112.5047 250° West 141 162 8,200 677 Climbing Albuquerque Center
Wed 03:44:39 PM 33.7692 -112.5089 244° Southwest 141 162 8,300 689 Climbing Albuquerque Center
Wed 03:45:22 PM 33.7594 -112.5486 254° West 140 161 8,900 677 Climbing Albuquerque Center
Wed 03:45:41 PM 33.7575 -112.5528 241° Southwest 140 161 9,000 689 Climbing Albuquerque Center
Wed 03:46:23 PM 33.7458 -112.5928 251° West 141 162 9,600 774 Climbing Albuquerque Center
Wed 03:46:43 PM 33.7444 -112.5972 249° West 140 161 9,800 358 Climbing Albuquerque Center
Wed 03:47:30 PM 33.7317 -112.6450 252° West 146 168 10,000 194 Climbing Albuquerque Center
Wed 03:47:45 PM 33.7281 -112.6539 244° Southwest 149 171 10,000  Level Albuquerque Center
Wed 03:48:30 PM 33.7153 -112.6975 251° West 164 189 10,000  Level Albuquerque Center
Wed 03:48:46 PM 33.7125 -112.7061 249° West 164 189 10,000  Level Albuquerque Center
Wed 03:49:31 PM 33.7003 -112.7472 250° West 163 188 10,000  Level Albuquerque Center
Wed 03:49:48 PM 33.6958 -112.7567 241° Southwest 163 188 10,000 590 Level Albuquerque Center
Wed 03:50:32 PM 33.6853 -112.7944 251° West 148 170 10,600 677 Climbing Albuquerque Center
Wed 03:50:50 PM 33.6819 -112.8025 244° Southwest 151 174 10,700 500 Climbing Albuquerque Center
Wed 03:51:32 PM 33.6700 -112.8414 250° West 143 165 11,100 581 Climbing Albuquerque Center
Wed 03:51:52 PM 33.6686 -112.8478 255° West 145 167 11,300 787 Climbing Albuquerque Center
Wed 03:52:33 PM 33.6694 -112.8875 271° West 138 159 11,900 677 Climbing Albuquerque Center
Wed 03:52:54 PM 33.6683 -112.8939 258° West 140 161 12,000 600 Climbing Albuquerque Center
Wed 03:53:33 PM 33.6667 -112.9339 267° West 140 161 12,500 581 Climbing Albuquerque Center
Wed 03:53:56 PM 33.6664 -112.9406 267° West 141 162 12,600 590 Climbing Albuquerque Center
Wed 03:54:34 PM 33.6647 -112.9831 267° West 142 163 13,100 677 Climbing Albuquerque Center
Wed 03:54:58 PM 33.6650 -112.9972 271° West 142 163 13,300 590 Climbing Albuquerque Center
Wed 03:55:35 PM 33.6644 -113.0314 269° West 141 162 13,700 492 Climbing Albuquerque Center
Wed 03:55:59 PM 33.6656 -113.0436 276° West 140 161 13,800 300 Climbing Albuquerque Center
Wed 03:56:35 PM 33.6633 -113.0750 265° West 140 161 14,000 194 Climbing Albuquerque Center
Wed 03:57:01 PM 33.6631 -113.0906 269° West 141 162 14,000  Level Albuquerque Center
Wed 03:57:36 PM 33.6617 -113.1264 267° West 148 170 14,000  Level Albuquerque Center
Wed 03:58:03 PM 33.6617 -113.1411 270° West 148 170 14,000  Level Albuquerque Center
Wed 03:58:31 PM 33.6594 -113.1753 266° West 156 180 14,000  Level Albuquerque Center
Wed 03:59:05 PM 33.6586 -113.1953 267° West 159 183 14,000  Level Albuquerque Center
Wed 04:00:07 PM 33.6581 -113.2497 269° West 162 186 14,000  Level Albuquerque Center
Wed 04:01:09 PM 33.6586 -113.3167 271° West 166 191 14,000  Level Albuquerque Center
Wed 04:02:10 PM 33.6592 -113.3714 271° West 166 191 14,000  Level Albuquerque Center
Wed 04:03:12 PM 33.6578 -113.4272 268° West 166 191 14,000  Level Albuquerque Center
Wed 04:04:14 PM 33.6564 -113.4833 268° West 168 193 14,000  Level Albuquerque Center
Wed 04:05:16 PM 33.6539 -113.5392 267° West 169 194 14,000  Level Albuquerque Center
Wed 04:06:18 PM 33.6517 -113.5950 267° West 168 193 14,000  Level Albuquerque Center
Wed 04:07:20 PM 33.6483 -113.6503 266° West 167 192 14,000  Level Albuquerque Center
Wed 04:08:22 PM 33.6456 -113.7164 267° West 167 192 14,000 -49 Level Albuquerque Center
Wed 04:09:23 PM 33.6433 -113.7733 267° West 169 194 13,900 -49 Descending Albuquerque Center
Wed 04:10:25 PM 33.6397 -113.8294 266° West 170 196 13,900  Level Albuquerque Center
Wed 04:11:27 PM 33.6375 -113.8850 267° West 168 193 13,900  Level Albuquerque Center
Wed 04:12:29 PM 33.6361 -113.9406 268° West 168 193 13,900  Level Albuquerque Center
Wed 04:13:31 PM 33.6342 -113.9961 268° West 167 192 13,900  Level Albuquerque Center
Wed 04:14:33 PM 33.6319 -114.0633 268° West 168 193 13,900  Level Albuquerque Center
Wed 04:15:35 PM 33.6292 -114.1186 267° West 167 192 13,900  Level Albuquerque Center
Wed 04:16:37 PM 33.6253 -114.1747 265° West 169 194 13,900  Level Albuquerque Center
Wed 04:17:38 PM 33.6244 -114.2267 269° West 168 193 13,900  Level Albuquerque Center
Wed 04:18:40 PM 33.6211 -114.2947 267° West 170 196 13,900  Level Albuquerque Center
Wed 04:19:42 PM 33.6189 -114.3506 267° West 170 196 13,900 48 Level Albuquerque Center
Wed 04:20:44 PM 33.6150 -114.4072 265° West 170 196 14,000 48 Climbing Albuquerque Center
Wed 04:21:46 PM 33.6136 -114.4636 268° West 171 197 14,000 -48 Level Albuquerque Center
Wed 04:22:48 PM 33.6097 -114.5211 265° West 173 199 13,900 -28 Descending Albuquerque Center
Wed 04:25:20 PM 33.6044 -114.6714 268° West 171 197 13,900  Level Los Angeles Center
Wed 04:26:22 PM 33.6028 -114.7272 268° West 170 196 13,900 48 Level Los Angeles Center
Wed 04:27:24 PM 33.6061 -114.7831 274° West 169 194 14,000  Climbing Los Angeles Center
Wed 04:28:26 PM 33.6244 -114.8364 292° West 172 198 13,900 -48 Descending Los Angeles Center
Wed 04:29:28 PM 33.6400 -114.8900 289° West 172 198 13,900  Level Los Angeles Center
Wed 04:30:31 PM 33.6608 -114.9528 292° West 170 196 13,900  Level Los Angeles Center
Wed 04:31:33 PM 33.6800 -115.0061 293° West 172 198 13,900 48 Level Los Angeles Center
Wed 04:32:35 PM 33.6972 -115.0597 291° West 173 199 14,000  Climbing Los Angeles Center
Wed 04:33:37 PM 33.7161 -115.1128 293° West 173 199 13,900 -48 Descending Los Angeles Center
Wed 04:34:39 PM 33.7344 -115.1675 292° West 178 205 13,900  Level Los Angeles Center
Wed 04:35:41 PM 33.7561 -115.2317 292° West 175 201 13,900 48 Level Los Angeles Center
Wed 04:36:43 PM 33.7747 -115.2867 292° West 177 204 14,000  Climbing Los Angeles Center
Wed 04:37:45 PM 33.7922 -115.3417 291° West 177 204 13,900  Descending Los Angeles Center
Wed 04:38:47 PM 33.8094 -115.3969 291° West 178 205 14,000  Climbing Los Angeles Center
Wed 04:39:50 PM 33.8272 -115.4531 291° West 179 206 13,900  Descending Los Angeles Center
Wed 04:40:52 PM 33.8442 -115.5089 290° West 179 206 14,000  Climbing Los Angeles Center
Wed 04:41:54 PM 33.8658 -115.5761 291° West 180 207 13,900 -48 Descending Los Angeles Center
Wed 04:42:56 PM 33.8844 -115.6317 292° West 179 206 13,900  Level Los Angeles Center
Wed 04:43:58 PM 33.9022 -115.6864 291° West 178 205 13,900  Level Los Angeles Center
Wed 04:45:00 PM 33.9189 -115.7408 290° West 176 203 13,900  Level Los Angeles Center
Wed 04:46:02 PM 33.9364 -115.7950 291° West 174 200 13,900  Level Los Angeles Center
Wed 04:47:04 PM 33.9572 -115.8606 291° West 175 201 13,900  Level Los Angeles Center
Wed 04:48:06 PM 33.9756 -115.9161 292° West 178 205 13,900  Level Los Angeles Center
Wed 04:49:08 PM 33.9928 -115.9725 290° West 179 206 13,900 48 Level Los Angeles Center
Wed 04:50:10 PM 34.0111 -116.0286 292° West 180 207 14,000 48 Climbing Los Angeles Center
Wed 04:51:12 PM 34.0286 -116.0844 291° West 180 207 14,000  Level Los Angeles Center
Wed 04:52:14 PM 34.0467 -116.1408 291° West 180 207 14,000  Level Los Angeles Center
Wed 04:53:16 PM 34.0694 -116.2103 292° West 184 212 14,000  Level Los Angeles Center
Wed 04:54:18 PM 34.0872 -116.2661 291° West 181 208 14,000  Level Los Angeles Center
Wed 04:55:20 PM 34.1047 -116.3239 290° West 182 209 14,000  Level Los Angeles Center
Wed 04:56:25 PM 34.1214 -116.3792 290° West 179 206 14,000 48 Level Los Angeles Center
Wed 04:57:24 PM 34.1394 -116.4361 291° West 180 207 14,100 50 Climbing Los Angeles Center
Wed 04:58:26 PM 34.1525 -116.4836 288° West 182 209 14,100  Level Los Angeles Center
Wed 04:59:29 PM 34.1794 -116.5639 292° West 185 213 14,100  Level Los Angeles Center
Wed 05:00:43 PM 34.1983 -116.6233 291° West 189 217 14,100 -132 Level Los Angeles Center
Wed 05:01:45 PM 34.2192 -116.6953 289° West 190 219 13,800 -192 Descending Los Angeles Center
Wed 05:02:48 PM 34.2369 -116.7569 289° West 195 224 13,700 -48 Descending Los Angeles Center
Wed 05:03:49 PM 34.2569 -116.8153 293° West 190 219 13,700  Level Los Angeles Center
Wed 05:04:51 PM 34.2756 -116.8731 291° West 186 214 13,700  Level Los Angeles Center
Wed 05:05:54 PM 34.2975 -116.9425 291° West 185 213 13,700 48 Level Los Angeles Center
Wed 05:06:56 PM 34.3158 -116.9986 292° West 181 208 13,800 48 Climbing Los Angeles Center
Wed 05:07:58 PM 34.3317 -117.0583 288° West 186 214 13,800  Level Los Angeles Center
Wed 05:09:00 PM 34.3492 -117.1169 290° West 186 214 13,800 97 Level Los Angeles Center
Wed 05:10:02 PM 34.3689 -117.1828 290° West 183 211 14,000 97 Climbing Los Angeles Center
Wed 05:11:04 PM 34.3861 -117.2414 290° West 185 213 14,000 48 Level Los Angeles Center
Wed 05:12:06 PM 34.4058 -117.3033 291° West 186 214 14,100 48 Climbing Los Angeles Center
Wed 05:13:08 PM 34.4253 -117.3642 291° West 192 221 14,100  Level Los Angeles Center
Wed 05:14:10 PM 34.4436 -117.4228 291° West 186 214 14,100 -48 Level Los Angeles Center
Wed 05:15:13 PM 34.4606 -117.4833 289° West 189 217 14,000 -96 Descending Los Angeles Center
Wed 05:16:15 PM 34.4789 -117.5450 290° West 194 223 13,900 -48 Descending Los Angeles Center
Wed 05:17:17 PM 34.4975 -117.6053 291° West 191 220 13,900  Level Los Angeles Center
Wed 05:18:19 PM 34.4992 -117.6822 272° West 190 219 13,900 48 Level Los Angeles Center
Wed 05:19:21 PM 34.5008 -117.7472 272° West 193 222 14,000  Climbing Los Angeles Center
Wed 05:20:23 PM 34.5019 -117.8106 271° West 189 217 13,900 -44 Descending Los Angeles Center
Wed 05:21:38 PM 34.5014 -117.8881 270° West 190 219 13,900  Level Los Angeles Center
Wed 05:22:39 PM 34.5022 -117.9397 271° West 191 220 13,900  Level Los Angeles Center
Wed 05:23:42 PM 34.5028 -118.0167 271° West 190 219 13,900  Level Los Angeles Center
Wed 05:24:44 PM 34.5033 -118.0944 271° West 191 220 13,900  Level Los Angeles Center
Wed 05:25:46 PM 34.5050 -118.1622 272° West 189 217 13,900 48 Level Los Angeles Center
Wed 05:26:48 PM 34.5061 -118.2258 271° West 190 219 14,000 97 Climbing Los Angeles Center
Wed 05:27:50 PM 34.5061 -118.2903 270° West 191 220 14,100 48 Climbing Los Angeles Center
Wed 05:28:53 PM 34.5064 -118.3539 270° West 190 219 14,100 -48 Level Los Angeles Center
Wed 05:29:55 PM 34.5075 -118.4178 271° West 190 219 14,000  Descending Los Angeles Center
Wed 05:30:57 PM 34.5078 -118.4814 270° West 190 219 14,100 48 Climbing Los Angeles Center
Wed 05:31:59 PM 34.5092 -118.5578 271° West 190 219 14,100  Level Los Angeles Center
Wed 05:33:01 PM 34.5097 -118.6203 271° West 188 216 14,100  Level Los Angeles Center
Wed 05:34:03 PM 34.5097 -118.6844 270° West 190 219 14,100  Level Los Angeles Center
Wed 05:35:05 PM 34.5106 -118.7472 271° West 187 215 14,100  Level Los Angeles Center
Wed 05:36:07 PM 34.5114 -118.8092 271° West 184 212 14,100  Level Los Angeles Center
Wed 05:37:09 PM 34.5114 -118.8864 270° West 190 219 14,100 -48 Level Los Angeles Center
Wed 05:38:12 PM 34.5111 -118.9494 270° West 189 217 14,000  Descending Los Angeles Center
Wed 05:39:14 PM 34.5117 -119.0144 271° West 193 222 14,100 48 Climbing Los Angeles Center
Wed 05:40:16 PM 34.5139 -119.0775 272° West 189 217 14,100  Level Los Angeles Center
Wed 05:41:18 PM 34.5119 -119.1436 268° West 194 223 14,100  Level Los Angeles Center
Wed 05:42:20 PM 34.5111 -119.2208 269° West 193 222 14,100 -48 Level Los Angeles Center
Wed 05:43:22 PM 34.5128 -119.2850 272° West 192 221 14,000 -339 Descending Los Angeles Center
Wed 05:44:24 PM 34.5103 -119.3531 267° West 198 228 13,400 -673 Descending Los Angeles Center
Wed 05:45:09 PM 34.5103 -119.4164 270° West 213 245 12,800 -963 Descending Los Angeles Center
Wed 05:45:45 PM 34.5111 -119.4581 271° West 216 249 12,100 -1,043 Descending Los Angeles Center
Wed 05:46:41 PM 34.5092 -119.5164 268° West 220 253 11,200 -864 Descending Los Angeles Center
Wed 05:47:43 PM 34.4711 -119.5833 235° Southwest 219 252 10,400 -1,258 Descending Los Angeles Center
Wed 05:48:45 PM 34.4247 -119.6181 212° Southwest 204 235 8,600 -1,742 Descending Los Angeles Center
Wed 05:49:47 PM 34.3803 -119.6569 216° Southwest 200 230 6,800 -1,805 Descending Los Angeles Center
Wed 05:50:48 PM 34.3364 -119.7003 219° Southwest 190 219 4,900 -1,694 Descending Los Angeles Center
Wed 05:51:51 PM 34.3358 -119.7503 269° West 206 237 3,300 -1,571 Descending Los Angeles Center
Wed 05:52:54 PM 34.3869 -119.7819 333° Northwest 183 211 1,600 -1,152 Descending Los Angeles Center
Wed 05:53:56 PM 34.4269 -119.7994 340° North 166 191 900 -435 Descending Los Angeles Center
Wed 05:54:58 PM 34.4619 -119.8161 339° North 162 186 700 -194 Descending Los Angeles Center
Wed 05:56:00 PM 34.4262 -119.8415 197° South  Level Estimated
Wed 06:03:00 PM 34.4262 -119.8415 212° Southwest  Level Estimated

Login

Don't have an account? Register now (free) for customized features, flight alerts, and more!